Time;durP1;ratioP1;P1;durP2;ratioP2;P2;SDS_P1;SDS_P2;PMS_P1;PMS_P2;Temp;Humidity;BMP_temperature;BMP_pressure;BME280_temperature;BME280_humidity;BME280_pressure;Samples;Min_cycle;Max_cycle;Signal;HPM_P1;HPM_P2
2021/12/12 00:02:31;;;;;;;24.63;16.63;;;1.60;83.40;;;-0.54;95.16;96738.78;4950248;28;20613;-69
2021/12/12 00:04:59;;;;;;;25.67;17.98;;;1.50;83.30;;;-0.54;95.31;96738.78;4938935;28;20046;-69
2021/12/12 00:07:28;;;;;;;26.98;17.20;;;1.60;83.40;;;-0.48;95.51;96739.19;4962611;28;20039;-69
2021/12/12 00:10:04;;;;;;;22.95;15.95;;;1.70;83.30;;;-0.45;95.78;96743.34;4983817;28;20093;-70
2021/12/12 00:12:33;;;;;;;22.20;15.85;;;1.80;83.20;;;-0.41;95.68;96749.97;4935949;28;20031;-69
2021/12/12 00:14:59;;;;;;;23.00;16.25;;;1.70;83.10;;;-0.41;95.71;96752.53;4951551;28;20027;-69
2021/12/12 00:17:25;;;;;;;22.75;16.10;;;1.80;83.00;;;-0.36;95.23;96763.38;4968098;28;20049;-69
2021/12/12 00:19:51;;;;;;;24.85;16.38;;;1.70;83.10;;;-0.35;95.80;96762.47;4954600;28;20102;-69
2021/12/12 00:22:21;;;;;;;22.27;15.30;;;1.70;83.10;;;-0.33;95.77;96763.16;4952188;28;20038;-69
2021/12/12 00:24:46;;;;;;;21.02;15.63;;;1.80;83.10;;;-0.30;95.18;96760.38;4952722;28;20197;-69
2021/12/12 00:27:13;;;;;;;22.27;15.30;;;1.80;83.20;;;-0.26;96.01;96766.97;4966041;28;20035;-70
2021/12/12 00:29:39;;;;;;;22.40;15.63;;;1.90;83.00;;;-0.24;95.48;96767.69;4949298;28;20090;-69
2021/12/12 00:32:10;;;;;;;22.17;15.48;;;2.00;82.90;;;-0.21;95.69;96767.50;4968412;28;20038;-69
2021/12/12 00:34:39;;;;;;;;;;;2.00;82.70;;;-0.16;95.52;96774.94;4968797;28;20035;-70
2021/12/12 00:37:06;;;;;;;22.02;14.93;;;2.10;82.60;;;-0.14;95.84;96768.72;4945972;28;19973;-70
2021/12/12 00:39:33;;;;;;;23.08;15.57;;;2.10;82.60;;;-0.11;95.82;96768.50;4948801;28;20036;-69
2021/12/12 00:42:12;;;;;;;21.35;15.25;;;2.20;82.60;;;-0.06;95.42;96771.59;4948455;28;20114;-69
2021/12/12 00:44:40;;;;;;;20.83;15.20;;;2.20;82.50;;;-0.04;95.39;96763.72;4942329;28;20412;-69
2021/12/12 00:47:08;;;;;;;23.40;15.63;;;2.20;82.40;;;-0.04;95.47;96759.38;4960966;28;20085;-70
2021/12/12 00:49:35;;;;;;;22.88;16.23;;;2.20;82.30;;;-0.03;95.14;96773.97;4951977;28;20031;-70
2021/12/12 00:52:03;;;;;;;23.77;15.85;;;2.10;82.40;;;-0.03;94.90;96768.78;4949033;28;20118;-70
2021/12/12 00:54:31;;;;;;;22.27;15.90;;;2.10;82.80;;;-0.03;94.94;96781.72;4968257;28;20495;-69
2021/12/12 00:57:06;;;;;;;21.63;15.57;;;2.10;82.90;;;-0.01;96.07;96789.38;4970335;28;20039;-69
2021/12/12 00:59:32;;;;;;;23.77;16.40;;;2.10;82.80;;;-0.03;95.49;96781.72;4954553;28;20039;-69
2021/12/12 01:01:58;;;;;;;20.40;15.00;;;2.20;82.80;;;0.01;95.15;96786.72;4963916;28;20585;-69
2021/12/12 01:04:26;;;;;;;21.23;15.57;;;2.20;82.90;;;0.04;95.26;96789.91;4963246;28;20043;-69
2021/12/12 01:06:54;;;;;;;22.48;15.90;;;2.30;82.80;;;0.08;95.47;96790.50;4956706;28;20035;-69
2021/12/12 01:09:27;;;;;;;22.20;15.20;;;2.30;82.60;;;0.08;95.64;96793.09;4969776;28;20039;-69
2021/12/12 01:11:54;;;;;;;22.52;15.30;;;2.30;82.60;;;0.12;95.44;96800.53;4956469;28;20130;-69
2021/12/12 01:14:24;;;;;;;20.50;15.20;;;2.30;82.50;;;0.13;95.13;96801.34;4953630;28;20031;-69
2021/12/12 01:16:59;;;;;;;21.30;15.30;;;2.30;82.50;;;0.14;95.30;96805.59;4969964;28;20034;-69
2021/12/12 01:19:50;;;;;;;21.30;15.88;;;2.30;82.50;;;0.13;95.33;96802.19;4951762;28;20031;-70
2021/12/12 01:22:27;;;;;;;21.10;14.82;;;2.40;82.50;;;0.16;95.45;96799.38;4939310;28;20392;-69
2021/12/12 01:24:53;;;;;;;22.77;15.70;;;2.40;82.50;;;0.18;95.12;96804.44;4969180;28;20039;-69
2021/12/12 01:27:19;;;;;;;20.92;15.60;;;2.50;82.50;;;0.22;95.44;96817.03;4969488;28;20031;-69
2021/12/12 01:29:46;;;;;;;21.63;15.43;;;2.40;82.60;;;0.23;95.26;96812.72;4957548;28;20031;-69
2021/12/12 01:32:20;;;;;;;20.13;15.15;;;2.40;82.50;;;0.25;95.49;96816.03;4960302;28;20169;-69
2021/12/12 01:34:50;;;;;;;21.08;15.25;;;2.50;82.50;;;0.28;95.16;96815.81;4955186;28;20050;-69
2021/12/12 01:40:15;;;;;;;22.63;16.35;;;2.50;82.50;;;0.26;95.31;96818.50;4935576;28;20593;-70
2021/12/12 01:43:21;;;;;;;23.58;15.30;;;2.40;82.60;;;0.30;95.47;96826.88;4981244;28;20495;-70
2021/12/12 01:45:51;;;;;;;21.15;15.93;;;2.50;82.60;;;0.29;95.93;96812.28;4938103;28;20503;-69
2021/12/12 01:48:30;;;;;;;23.02;15.25;;;2.50;82.90;;;0.32;95.59;96809.47;4951601;28;20058;-69
2021/12/12 01:51:04;;;;;;;21.08;15.40;;;2.50;82.70;;;0.32;95.67;96800.88;4962991;28;20034;-69
2021/12/12 01:53:36;;;;;;;21.38;15.15;;;2.50;82.70;;;0.32;95.33;96806.88;4962138;28;20027;-70
2021/12/12 01:56:22;;;;;;;19.73;14.85;;;2.60;82.70;;;0.32;95.60;96806.06;4952159;28;20409;-69
2021/12/12 01:58:52;;;;;;;22.63;16.45;;;2.50;82.90;;;0.33;95.92;96818.91;4939706;28;20521;-69
2021/12/12 02:01:28;;;;;;;23.40;16.33;;;2.60;82.90;;;0.36;95.32;96810.91;4955658;23;20721;-67
2021/12/12 02:04:02;;;;;;;21.13;16.13;;;2.60;83.00;;;0.38;95.93;96821.16;4959600;28;20414;-66
2021/12/12 02:06:28;;;;;;;22.85;15.32;;;2.60;82.90;;;0.40;96.12;96806.34;4951480;28;20402;-67
2021/12/12 02:08:54;;;;;;;20.23;15.30;;;2.60;82.70;;;0.41;95.34;96811.41;4965458;28;20058;-68
2021/12/12 02:11:25;;;;;;;20.83;15.90;;;2.70;82.80;;;0.45;95.57;96824.94;4950840;28;20501;-68
2021/12/12 02:13:53;;;;;;;20.15;14.63;;;2.70;82.80;;;0.46;96.02;96830.03;4913628;28;20055;-67
2021/12/12 02:16:20;;;;;;;22.20;15.75;;;2.70;82.70;;;0.48;95.10;96823.00;4917578;29;20039;-67
2021/12/12 02:18:50;;;;;;;21.38;15.45;;;2.80;82.50;;;0.49;95.43;96824.66;4948302;28;20174;-67
2021/12/12 02:21:49;;;;;;;20.70;15.13;;;2.80;82.50;;;0.50;95.94;96821.13;4952154;28;20117;-67
2021/12/12 02:35:23;;;;;;;19.63;14.75;;;2.70;82.80;;;0.48;95.58;96828.16;4972097;28;20038;-68
2021/12/12 02:37:50;;;;;;;23.30;16.30;;;2.60;83.00;;;0.49;96.08;96824.66;4956835;28;20099;-68
2021/12/12 02:40:23;;;;;;;22.67;16.27;;;2.60;83.10;;;0.48;96.00;96820.41;4971101;28;20035;-68
2021/12/12 02:42:49;;;;;;;20.67;15.35;;;2.60;83.10;;;0.47;95.44;96816.16;4971340;28;20507;-68
2021/12/12 02:45:17;;;;;;;22.80;14.95;;;2.60;83.20;;;0.48;95.94;96841.09;4955317;28;20062;-68
2021/12/12 02:47:45;;;;;;;26.98;15.73;;;2.60;83.10;;;0.49;95.48;96841.94;4955719;28;20038;-68
2021/12/12 02:50:18;;;;;;;22.08;15.60;;;2.60;83.20;;;0.49;95.74;96837.59;4971526;28;20054;-66
2021/12/12 02:52:52;;;;;;;23.35;15.35;;;2.70;83.10;;;0.50;95.71;96844.41;4970167;28;20097;-67
2021/12/12 02:55:25;;;;;;;22.42;15.25;;;2.70;83.00;;;0.51;95.81;96848.66;4970968;28;20129;-67
2021/12/12 02:57:53;;;;;;;22.58;14.90;;;2.70;83.10;;;0.52;95.70;96850.31;4952145;28;20035;-67
2021/12/12 03:00:21;;;;;;;22.10;15.73;;;2.70;83.10;;;0.51;96.10;96856.41;4954904;28;20197;-66
2021/12/12 03:02:48;;;;;;;22.52;15.52;;;2.60;83.30;;;0.51;95.61;96855.59;4972178;28;20324;-67
2021/12/12 03:05:16;;;;;;;22.48;15.07;;;2.60;83.30;;;0.52;95.93;96842.53;4970823;28;20105;-68
2021/12/12 03:07:43;;;;;;;22.40;15.75;;;2.60;83.30;;;0.50;95.87;96841.81;4970735;28;20039;-68
2021/12/12 03:10:13;;;;;;;22.35;15.52;;;2.70;83.30;;;0.53;96.08;96838.19;4970899;28;20090;-68
2021/12/12 03:12:39;;;;;;;23.47;15.40;;;2.60;83.10;;;0.52;95.56;96849.47;4951603;28;20530;-69
2021/12/12 03:15:17;;;;;;;22.73;16.17;;;2.60;83.20;;;0.49;95.87;96845.34;4955097;28;20069;-68
2021/12/12 03:17:46;;;;;;;23.02;15.73;;;2.60;83.20;;;0.49;95.81;96850.53;4971631;28;20039;-67
2021/12/12 03:20:31;;;;;;;21.25;15.27;;;2.60;83.30;;;0.50;96.19;96857.34;4970945;28;20063;-68
2021/12/12 03:23:24;;;;;;;21.63;14.80;;;2.60;83.30;;;0.48;96.04;96848.88;4955724;28;20383;-68
2021/12/12 03:26:01;;;;;;;20.67;14.50;;;2.60;83.20;;;0.50;96.52;96851.34;4955053;28;20134;-66
2021/12/12 03:28:30;;;;;;;27.52;18.65;;;2.60;83.60;;;0.49;95.75;96855.72;4970293;28;20047;-67
2021/12/12 03:30:59;;;;;;;28.35;17.95;;;2.60;83.20;;;0.49;95.61;96860.88;4970548;28;20458;-67
2021/12/12 03:33:25;;;;;;;34.50;22.52;;;2.60;83.40;;;0.50;96.31;96857.34;4954431;28;20529;-67
2021/12/12 03:35:52;;;;;;;34.55;23.02;;;2.60;83.50;;;0.52;96.19;96852.06;4938340;28;20118;-67
2021/12/12 03:38:18;;;;;;;24.10;16.95;;;2.70;83.40;;;0.53;95.80;96856.31;4936767;28;20144;-67
2021/12/12 03:40:45;;;;;;;25.17;17.05;;;2.70;83.20;;;0.51;96.10;96859.00;4954357;28;20031;-68
2021/12/12 03:43:12;;;;;;;20.50;15.20;;;2.60;83.40;;;0.52;96.11;96860.66;4937563;28;20059;-68
2021/12/12 03:45:38;;;;;;;22.10;15.60;;;2.70;83.30;;;0.53;96.29;96867.50;4969477;28;20085;-67
2021/12/12 03:48:12;;;;;;;20.05;14.98;;;2.60;83.30;;;0.54;96.19;96857.97;4954375;28;20039;-67
2021/12/12 03:50:40;;;;;;;23.30;16.10;;;2.70;83.40;;;0.52;96.24;96854.66;4954213;28;20097;-68
2021/12/12 03:53:06;;;;;;;27.48;19.83;;;2.60;83.40;;;0.50;95.92;96856.53;4954036;28;20141;-68
2021/12/12 03:55:32;;;;;;;25.60;18.83;;;2.60;83.60;;;0.51;96.38;96859.00;4953590;28;20117;-68
2021/12/12 03:57:59;;;;;;;24.33;15.40;;;2.50;83.60;;;0.51;96.34;96859.00;4953917;28;20038;-68
2021/12/12 04:00:36;;;;;;;19.70;14.38;;;2.60;83.70;;;0.53;96.43;96851.97;4937774;28;20510;-68
2021/12/12 04:03:02;;;;;;;21.55;15.18;;;2.60;83.70;;;0.52;96.35;96852.91;4969759;28;20073;-68
2021/12/12 04:05:27;;;;;;;18.60;13.50;;;2.60;83.80;;;0.54;96.53;96863.97;4953307;28;20351;-66
2021/12/12 04:07:54;;;;;;;22.08;14.25;;;2.60;83.40;;;0.54;96.36;96856.19;4985589;28;20051;-68
2021/12/12 04:10:23;;;;;;;20.73;15.25;;;2.70;83.40;;;0.55;96.28;96860.44;4937900;28;20054;-69
2021/12/12 04:12:49;;;;;;;17.92;13.70;;;2.70;83.30;;;0.58;95.57;96870.56;4953843;28;20058;-68
2021/12/12 04:15:15;;;;;;;19.98;14.43;;;2.70;83.10;;;0.56;95.98;96867.28;4953387;28;20121;-67
2021/12/12 04:17:40;;;;;;;20.58;14.13;;;2.70;83.10;;;0.59;96.18;96876.56;4969693;28;20038;-67
2021/12/12 04:20:13;;;;;;;21.92;15.38;;;2.70;83.00;;;0.59;95.96;96869.63;4970088;28;20410;-67
2021/12/12 04:22:38;;;;;;;18.20;13.93;;;2.80;83.00;;;0.61;96.11;96870.34;4952949;28;20058;-68
2021/12/12 04:25:05;;;;;;;20.08;14.57;;;2.80;82.90;;;0.65;95.70;96880.50;4937877;28;20069;-67
2021/12/12 04:27:31;;;;;;;17.88;13.70;;;2.90;82.80;;;0.67;95.52;96888.97;4969009;28;20038;-67
2021/12/12 04:30:00;;;;;;;20.40;14.23;;;2.90;82.60;;;0.67;95.66;96889.78;4953647;28;20047;-67
2021/12/12 04:32:27;;;;;;;20.85;14.85;;;2.90;82.50;;;0.67;95.90;96901.91;4969608;28;20403;-67
2021/12/12 04:34:59;;;;;;;21.48;14.52;;;2.90;82.60;;;0.70;95.75;96904.31;4953285;28;20521;-67
2021/12/12 04:37:25;;;;;;;23.05;14.52;;;2.90;82.50;;;0.70;95.60;96904.31;4968573;28;20031;-66
2021/12/12 04:39:54;;;;;;;19.63;14.68;;;2.90;82.70;;;0.72;95.71;96907.63;4953297;28;20039;-67
2021/12/12 04:42:27;;;;;;;20.33;14.77;;;3.00;82.50;;;0.72;95.67;96917.97;4912376;29;20512;-68
2021/12/12 04:45:30;;;;;;;19.13;14.73;;;3.00;82.50;;;0.74;96.20;96923.88;4967041;28;20047;-67
2021/12/12 04:51:09;;;;;;;20.65;15.25;;;3.00;82.40;;;0.73;96.01;96927.41;4959342;28;20061;-68
2021/12/12 04:54:01;;;;;;;21.08;14.98;;;3.00;82.50;;;0.73;96.19;96915.28;4953762;28;20435;-68
2021/12/12 04:56:31;;;;;;;21.83;15.45;;;3.00;82.50;;;0.74;95.73;96919.53;4943168;28;20046;-68
2021/12/12 04:59:04;;;;;;;21.65;15.27;;;3.00;82.40;;;0.75;95.44;96922.94;4937482;28;20038;-67
2021/12/12 05:02:28;;;;;;;20.17;14.80;;;3.00;82.60;;;0.77;96.38;96937.44;4951712;28;20035;-67
2021/12/12 05:05:08;;;;;;;20.65;14.35;;;3.00;82.50;;;0.77;95.49;96941.78;4950896;28;20054;-68
2021/12/12 05:08:10;;;;;;;22.20;14.70;;;2.90;82.60;;;0.79;96.16;96942.50;4937510;28;20125;-69
2021/12/12 05:11:07;;;;;;;19.48;14.65;;;2.90;82.60;;;0.78;95.89;96943.44;4956836;28;20118;-68
2021/12/12 05:13:41;;;;;;;22.55;14.60;;;2.90;82.40;;;0.77;95.75;96946.97;4967514;28;20603;-69
2021/12/12 05:16:17;;;;;;;20.58;14.02;;;2.90;82.40;;;0.77;95.75;96941.78;4953087;28;20035;-68
2021/12/12 05:18:49;;;;;;;19.63;14.50;;;2.90;82.20;;;0.76;95.46;96946.13;4937240;28;20031;-69
2021/12/12 05:21:27;;;;;;;19.30;14.73;;;3.00;82.40;;;0.80;96.00;96949.31;4945103;28;20038;-69
2021/12/12 05:23:59;;;;;;;19.95;14.30;;;3.10;82.40;;;0.80;95.61;96959.69;4953679;28;20034;-66
2021/12/12 05:26:34;;;;;;;17.55;13.75;;;3.00;82.10;;;0.82;95.60;96965.59;4949716;28;20077;-66
2021/12/12 05:29:08;;;;;;;18.17;13.30;;;3.10;81.90;;;0.85;94.92;96962.78;4952595;28;20066;-69
2021/12/12 05:31:34;;;;;;;16.33;12.05;;;3.10;81.70;;;0.85;95.44;96962.78;4966994;28;20134;-68
2021/12/12 05:34:00;;;;;;;17.67;13.15;;;3.10;81.60;;;0.84;94.97;96958.53;4951223;28;20122;-69
2021/12/12 05:36:27;;;;;;;17.15;12.00;;;3.10;81.40;;;0.85;94.71;96960.19;4915261;28;20197;-68
2021/12/12 05:38:57;;;;;;;16.98;12.10;;;3.10;81.40;;;0.88;95.03;96955.63;4901936;28;20191;-68
2021/12/12 05:41:23;;;;;;;16.15;11.75;;;3.10;81.30;;;0.89;95.01;96957.25;4891896;28;20107;-68
2021/12/12 05:43:50;;;;;;;16.42;11.80;;;3.10;81.40;;;0.90;94.50;96961.50;4903633;28;20220;-68
2021/12/12 05:46:18;;;;;;;17.65;12.35;;;3.10;81.00;;;0.91;94.77;96954.59;4907340;28;20534;-68
2021/12/12 05:48:44;;;;;;;16.13;11.40;;;3.10;81.10;;;0.91;94.36;96959.78;4907436;28;20222;-68
2021/12/12 05:51:11;;;;;;;16.83;12.20;;;3.20;80.90;;;0.91;94.18;96962.38;4907501;28;20526;-69
2021/12/12 05:53:37;;;;;;;16.23;11.98;;;3.10;80.70;;;0.91;94.37;96954.59;4921962;28;20234;-68
2021/12/12 05:56:04;;;;;;;16.55;12.48;;;3.10;81.00;;;0.91;94.50;96964.97;4907208;28;20645;-68
2021/12/12 05:58:29;;;;;;;14.95;11.60;;;3.10;80.90;;;0.91;94.04;96970.97;4922845;28;20170;-68
2021/12/12 06:01:02;;;;;;;16.75;12.27;;;3.10;81.00;;;0.91;94.04;96967.53;4899234;28;20104;-67
2021/12/12 06:03:33;;;;;;;15.27;12.07;;;3.10;81.00;;;0.93;94.26;96962.25;4922405;28;20645;-68
2021/12/12 06:05:59;;;;;;;17.90;12.20;;;3.10;81.00;;;0.93;94.51;96968.25;4922918;28;20282;-68
2021/12/12 06:08:26;;;;;;;17.05;11.85;;;3.10;81.00;;;0.95;94.28;96975.91;4903387;28;20187;-68
2021/12/12 06:10:52;;;;;;;18.67;13.15;;;3.20;81.00;;;0.95;93.53;96973.34;4893238;28;20185;-68
2021/12/12 06:13:18;;;;;;;19.20;13.70;;;3.20;80.80;;;0.94;94.00;96975.09;4922281;28;20697;-69
2021/12/12 06:15:48;;;;;;;19.90;13.88;;;3.20;80.80;;;0.95;93.67;96971.56;4906489;28;20170;-69
2021/12/12 06:18:14;;;;;;;18.08;13.35;;;3.10;81.00;;;0.94;94.19;96985.47;4922544;28;20564;-68
2021/12/12 06:20:41;;;;;;;17.75;12.68;;;3.20;81.00;;;0.94;93.87;96984.63;4890862;28;20096;-70
2021/12/12 06:23:06;;;;;;;16.55;12.15;;;3.10;81.10;;;0.94;93.84;96988.03;4872336;28;20089;-70
2021/12/12 06:25:32;;;;;;;17.50;12.13;;;3.20;80.90;;;0.95;93.73;96984.53;4887172;28;20167;-69
2021/12/12 06:27:58;;;;;;;17.65;12.45;;;3.20;81.00;;;0.95;94.01;96991.47;4874892;28;21527;-65
2021/12/12 06:30:24;;;;;;;16.17;11.98;;;3.10;80.60;;;0.93;93.89;96988.97;4903658;28;20175;-66
2021/12/12 06:32:50;;;;;;;15.55;12.10;;;3.10;81.10;;;0.93;93.83;97004.53;4889388;28;20186;-65
2021/12/12 06:35:16;;;;;;;29.15;20.73;;;3.10;81.00;;;0.94;93.43;96995.81;4906361;28;20226;-65
2021/12/12 06:37:42;;;;;;;21.38;15.50;;;3.10;81.10;;;0.92;94.05;97002.88;4922125;28;20195;-66
2021/12/12 06:40:10;;;;;;;17.85;13.40;;;3.10;81.20;;;0.94;94.14;97011.34;4906497;28;20127;-66
2021/12/12 06:42:36;;;;;;;16.30;12.65;;;3.10;81.10;;;0.95;93.63;97007.00;4906184;28;20553;-67
2021/12/12 06:45:02;;;;;;;17.80;12.48;;;3.10;80.90;;;0.96;93.39;97003.47;4904826;28;20183;-66
2021/12/12 06:47:28;;;;;;;18.83;15.05;;;3.10;81.00;;;0.95;93.77;97013.00;4922043;28;20262;-64
2021/12/12 06:49:54;;;;;;;43.88;29.52;;;3.10;81.20;;;0.95;93.75;97007.00;4902966;28;20544;-66
2021/12/12 06:52:20;;;;;;;22.50;16.65;;;3.10;81.00;;;0.95;93.58;97013.00;4921981;28;20088;-67
2021/12/12 06:54:46;;;;;;;16.38;13.00;;;3.10;81.00;;;0.96;93.56;97013.84;4921987;28;20223;-66
2021/12/12 06:57:14;;;;;;;17.50;13.00;;;3.10;81.00;;;0.96;94.29;97027.63;4890164;28;20123;-67
2021/12/12 06:59:45;;;;;;;17.45;12.43;;;3.20;80.90;;;0.99;93.52;97030.00;4889587;28;20034;-68
2021/12/12 07:02:11;;;;;;;16.90;12.88;;;3.20;80.70;;;0.99;93.54;97029.16;4923703;28;20031;-67
2021/12/12 07:04:38;;;;;;;19.35;13.98;;;3.20;80.80;;;0.97;93.75;97021.50;4926487;28;20034;-66
2021/12/12 07:07:06;;;;;;;22.45;16.17;;;3.10;80.90;;;0.98;93.70;97025.75;4890199;28;20199;-69
2021/12/12 07:09:32;;;;;;;21.20;15.80;;;3.20;81.30;;;0.98;94.10;97033.53;4915075;28;20696;-67
2021/12/12 07:12:01;;;;;;;18.65;13.88;;;3.10;81.40;;;1.02;93.77;97032.38;4902828;28;20190;-66
2021/12/12 07:14:26;;;;;;;42.17;29.52;;;3.20;81.10;;;1.04;93.74;97034.84;4920649;28;20203;-68
2021/12/12 07:16:54;;;;;;;23.25;17.30;;;3.20;81.40;;;1.07;94.06;97039.81;4923908;28;20110;-66
2021/12/12 07:19:19;;;;;;;20.02;14.25;;;3.30;81.10;;;1.09;94.02;97038.75;4907236;28;20114;-66
2021/12/12 07:21:45;;;;;;;54.70;34.78;;;3.30;80.60;;;1.09;93.22;97038.75;4923818;28;20111;-67
2021/12/12 07:24:11;;;;;;;31.38;20.98;;;3.20;80.00;;;1.10;93.08;97057.72;4913174;28;20096;-68
2021/12/12 07:26:37;;;;;;;22.05;15.20;;;3.30;79.80;;;1.11;92.96;97056.78;4936707;28;20126;-70
2021/12/12 07:29:03;;;;;;;16.30;12.20;;;3.30;79.60;;;1.11;92.90;97060.22;4967608;28;20039;-68
2021/12/12 07:31:32;;;;;;;12.93;9.60;;;3.30;79.50;;;1.12;92.37;97061.03;4960850;28;20027;-68
2021/12/12 07:33:59;;;;;;;14.07;10.23;;;3.30;79.20;;;1.13;92.60;97068.72;4924835;28;20035;-67
2021/12/12 07:36:25;;;;;;;14.95;10.65;;;3.30;79.10;;;1.13;92.53;97067.88;4968803;28;20414;-67
2021/12/12 07:38:57;;;;;;;12.57;9.95;;;3.30;79.30;;;1.15;91.72;97066.03;4952775;28;20031;-68
2021/12/12 07:41:28;;;;;;;13.13;9.48;;;3.30;78.60;;;1.14;91.73;97057.44;4937325;28;20046;-69
2021/12/12 07:43:54;;;;;;;;;;;3.30;78.90;;;1.13;90.93;97063.56;4969992;28;20517;-68
2021/12/12 07:46:20;;;;;;;9.68;7.15;;;3.20;78.20;;;1.12;90.73;97067.03;4969964;28;19925;-68
2021/12/12 07:48:47;;;;;;;11.18;7.72;;;3.20;77.90;;;1.15;90.74;97066.03;4968755;28;20078;-68
2021/12/12 07:51:13;;;;;;;10.88;8.30;;;3.30;77.80;;;1.16;90.32;97070.28;4953437;28;20034;-68
2021/12/12 07:53:38;;;;;;;12.52;8.95;;;3.30;77.40;;;1.18;90.39;97077.00;4936498;28;20368;-68
2021/12/12 07:56:04;;;;;;;10.68;8.27;;;3.30;77.30;;;1.19;89.82;97073.47;4953177;28;20066;-69
2021/12/12 07:58:30;;;;;;;63.00;35.60;;;3.40;77.40;;;1.21;90.17;97071.59;4969074;28;20069;-67
2021/12/12 08:00:57;;;;;;;13.55;9.38;;;3.40;77.10;;;1.21;89.38;97071.59;4915089;28;20476;-67
2021/12/12 08:03:28;;;;;;;6.63;5.45;;;3.40;76.10;;;1.20;89.21;97067.38;4968716;28;20042;-68
2021/12/12 08:05:54;;;;;;;7.55;6.05;;;3.20;76.70;;;1.22;89.14;97068.09;4953202;28;20491;-68
2021/12/12 08:08:20;;;;;;;8.90;6.57;;;3.30;76.40;;;1.25;89.14;97063.63;4952064;28;20157;-67
2021/12/12 08:10:46;;;;;;;9.25;6.35;;;3.40;76.40;;;1.27;89.08;97064.34;4916114;29;20134;-69
2021/12/12 08:13:13;;;;;;;8.02;6.25;;;3.30;75.70;;;1.29;88.79;97057.28;4953287;28;20403;-70
2021/12/12 08:15:39;;;;;;;7.80;6.00;;;3.40;76.40;;;1.33;88.53;97064.72;4952185;28;20035;-69
2021/12/12 08:18:06;;;;;;;7.03;5.65;;;3.50;75.90;;;1.39;88.90;97066.06;4933597;28;20125;-69
2021/12/12 08:20:32;;;;;;;7.43;5.97;;;3.60;76.20;;;1.43;88.39;97070.09;4967743;28;20131;-69
2021/12/12 08:22:58;;;;;;;9.70;6.75;;;3.70;75.90;;;1.49;88.63;97067.06;4952928;28;20480;-69
2021/12/12 08:25:25;;;;;;;9.68;7.25;;;3.80;75.30;;;1.53;88.40;97055.53;4936198;28;20384;-69
2021/12/12 08:27:53;;;;;;;8.82;6.57;;;3.90;75.40;;;1.59;88.11;97060.31;4943797;28;20054;-69
2021/12/12 08:30:18;;;;;;;8.80;6.38;;;3.90;74.80;;;1.64;87.57;97058.19;4920228;28;20039;-69
2021/12/12 08:32:47;;;;;;;9.75;7.22;;;4.00;74.50;;;1.69;87.70;97057.84;4968369;28;20526;-68
2021/12/12 08:35:13;;;;;;;22.58;15.32;;;4.10;74.50;;;1.74;87.96;97061.78;4968344;28;20039;-68
2021/12/12 08:37:40;;;;;;;21.80;16.02;;;4.10;74.00;;;1.80;87.63;97063.91;4952176;28;20097;-68
2021/12/12 08:40:07;;;;;;;9.55;7.35;;;4.20;73.80;;;1.86;87.41;97067.03;4936612;28;20034;-69
2021/12/12 08:42:33;;;;;;;11.50;8.63;;;4.20;73.40;;;1.91;87.08;97073.53;4950730;28;20105;-68
2021/12/12 08:44:59;;;;;;;10.43;7.38;;;4.40;73.10;;;2.00;87.52;97074.63;4952277;28;20038;-69
2021/12/12 08:47:25;;;;;;;7.75;6.65;;;4.50;72.70;;;2.08;86.61;97067.13;4935796;28;20375;-69
2021/12/12 08:49:51;;;;;;;7.18;6.03;;;4.60;72.30;;;2.17;86.36;97069.03;4967634;28;20047;-69
2021/12/12 08:52:25;;;;;;;7.65;6.50;;;4.70;71.80;;;2.23;85.53;97065.97;4951815;28;20399;-68
2021/12/12 08:54:53;;;;;;;7.10;6.40;;;4.90;71.50;;;2.33;85.81;97066.13;4952204;28;20031;-69
2021/12/12 08:58:22;;;;;;;7.05;6.15;;;5.00;70.90;;;2.44;85.12;97063.53;4968010;28;20067;-69
2021/12/12 09:00:19;;;;;;;8.43;6.10;;;5.20;70.10;;;2.55;84.96;97055.78;4964154;28;20077;-68
2021/12/12 09:02:45;;;;;;;8.57;6.47;;;5.40;68.80;;;2.65;84.95;97056.72;4950926;28;20445;-67
2021/12/12 09:05:19;;;;;;;8.25;6.47;;;5.60;68.70;;;2.81;84.14;97069.38;4933136;28;20082;-67
2021/12/12 09:07:48;;;;;;;10.48;6.70;;;5.90;68.20;;;2.95;83.95;97063.97;4949545;28;20062;-66
2021/12/12 09:10:21;;;;;;;7.72;6.75;;;6.10;66.90;;;3.10;82.95;97061.13;4919613;28;20085;-69
2021/12/12 09:13:06;;;;;;;8.02;5.78;;;6.10;66.90;;;3.25;81.19;97065.13;4968757;28;20066;-68
2021/12/12 09:15:47;;;;;;;10.50;9.40;;;6.40;65.80;;;3.40;81.48;97069.13;4951365;28;20031;-69
2021/12/12 09:18:25;;;;;;;20.17;15.60;;;6.60;65.80;;;3.53;81.10;97064.59;4929389;28;20053;-70
2021/12/12 09:21:22;;;;;;;16.38;13.65;;;6.70;64.70;;;3.68;79.84;97073.81;4931841;28;20327;-71
2021/12/12 09:24:12;;;;;;;12.50;9.27;;;6.80;65.20;;;3.82;79.65;97080.50;4933425;28;20035;-70
2021/12/12 09:26:43;;;;;;;7.32;6.60;;;6.90;64.80;;;3.90;80.46;97074.69;4953573;28;20132;-69
2021/12/12 09:29:25;;;;;;;7.53;6.47;;;6.80;64.60;;;3.98;80.35;97075.72;4919911;28;20121;-69
2021/12/12 09:31:55;;;;;;;7.32;6.50;;;6.60;64.20;;;4.04;80.30;97074.38;4965971;28;20049;-68
2021/12/12 09:34:32;;;;;;;7.43;6.28;;;6.70;64.70;;;4.11;78.58;97079.94;4944262;28;20089;-74
2021/12/12 09:37:08;;;;;;;15.10;11.77;;;7.00;64.40;;;4.17;78.00;97074.22;4936804;28;20117;-70
2021/12/12 09:39:47;;;;;;;7.07;6.38;;;7.00;63.80;;;4.21;78.05;97075.63;4951416;28;20039;-71
2021/12/12 09:42:29;;;;;;;7.05;6.25;;;7.10;61.90;;;4.31;76.69;97071.31;4947592;28;20035;-71
2021/12/12 09:45:07;;;;;;;7.00;6.30;;;7.30;62.30;;;4.37;76.53;97072.59;4948368;28;20466;-70
2021/12/12 09:51:40;;;;;;;7.47;6.50;;;7.50;61.50;;;4.45;74.43;97073.59;4964771;28;20130;-69
2021/12/12 09:54:27;;;;;;;7.07;6.07;;;7.50;60.60;;;4.40;74.66;97069.72;4967097;28;20088;-70
2021/12/12 09:57:15;;;;;;;7.10;6.40;;;7.40;60.00;;;4.40;73.99;97061.91;4937508;28;20608;-69
2021/12/12 10:00:05;;;;;;;7.70;6.60;;;8.00;59.00;;;4.43;73.52;97069.47;4932733;28;20062;-69
2021/12/12 10:02:55;;;;;;;8.90;7.85;;;8.70;55.70;;;4.57;74.39;97061.34;4966441;28;20537;-70
2021/12/12 10:05:59;;;;;;;7.60;6.80;;;10.50;52.30;;;4.77;74.02;97068.31;4965905;28;20499;-66
2021/12/12 10:08:56;;;;;;;11.90;10.02;;;11.80;47.90;;;5.06;74.10;97062.41;4958313;28;20042;-66
2021/12/12 10:11:32;;;;;;;10.52;8.27;;;12.80;44.80;;;5.30;73.71;97055.09;4953399;28;20631;-67
2021/12/12 10:14:17;;;;;;;6.88;6.18;;;13.30;43.10;;;5.56;72.78;97038.94;4967100;28;20034;-67
2021/12/12 10:17:08;;;;;;;42.00;31.83;;;12.30;45.10;;;5.84;72.15;97030.31;4950877;28;20034;-66
2021/12/12 10:19:54;;;;;;;27.30;17.45;;;12.50;45.70;;;6.19;71.97;97036.81;4985932;28;20053;-66
2021/12/12 10:22:37;;;;;;;19.95;15.23;;;14.10;41.50;;;6.68;70.85;97033.97;4938674;28;20093;-67
2021/12/12 10:25:14;;;;;;;14.75;11.10;;;16.50;36.70;;;7.19;71.13;97027.47;4951367;28;20181;-68
2021/12/12 10:28:05;;;;;;;14.80;11.90;;;18.40;33.10;;;7.79;69.78;97027.81;4965973;28;20421;-66
2021/12/12 10:30:40;;;;;;;9.75;7.53;;;19.50;31.00;;;8.25;70.00;97021.50;4952255;28;20031;-67
2021/12/12 10:33:19;;;;;;;7.97;7.18;;;19.40;30.20;;;8.72;65.78;97023.00;4946781;28;20062;-67
2021/12/12 10:35:58;;;;;;;7.75;6.97;;;19.60;29.40;;;8.97;69.86;97019.53;4958614;28;20035;-67
2021/12/12 10:39:22;;;;;;;6.85;6.13;;;19.40;30.00;;;9.34;60.20;97010.53;4932576;28;20089;-67
2021/12/12 10:41:54;;;;;;;8.05;7.25;;;18.70;30.80;;;9.35;64.98;96999.88;4956441;28;20142;-68
2021/12/12 10:44:27;;;;;;;8.40;7.55;;;17.70;32.40;;;9.35;63.62;97004.31;4935995;28;20042;-68
2021/12/12 10:47:19;;;;;;;7.35;6.65;;;17.10;33.00;;;9.30;63.15;96994.28;4948559;28;20046;-67
2021/12/12 10:50:11;;;;;;;6.75;5.93;;;16.50;33.80;;;9.25;60.31;97003.59;4958034;28;20035;-67
2021/12/12 10:52:46;;;;;;;7.72;6.93;;;16.10;35.00;;;9.22;61.83;97002.09;4966495;28;20090;-68
2021/12/12 10:55:34;;;;;;;8.25;7.43;;;16.00;35.70;;;9.23;59.80;97006.38;4970359;28;20131;-67
2021/12/12 10:58:18;;;;;;;8.85;7.95;;;15.80;36.00;;;9.23;62.91;97005.56;4923775;28;20102;-67
2021/12/12 11:00:51;;;;;;;10.80;9.15;;;16.10;35.80;;;9.29;61.41;97000.50;4970411;28;20550;-68
2021/12/12 11:03:30;;;;;;;9.55;8.55;;;16.00;35.60;;;9.33;62.48;97003.63;4952335;28;20299;-68
2021/12/12 11:06:02;;;;;;;10.30;9.25;;;16.10;35.70;;;9.32;60.42;97000.19;4970513;28;20122;-66